sensor_id;sensor_type;location;lat;lon;timestamp;P1;durP1;ratioP1;P2;durP2;ratioP2
67805;SDS011;54603;45.638;11.714;2024-03-06T00:00:01;4.60;;;2.20;;
67805;SDS011;54603;45.638;11.714;2024-03-06T00:02:28;2.70;;;2.20;;
67805;SDS011;54603;45.638;11.714;2024-03-06T00:04:53;6.10;;;2.30;;
67805;SDS011;54603;45.638;11.714;2024-03-06T00:07:20;4.00;;;1.70;;
67805;SDS011;54603;45.638;11.714;2024-03-06T00:09:47;2.90;;;2.00;;
67805;SDS011;54603;45.638;11.714;2024-03-06T00:12:12;3.00;;;2.10;;
67805;SDS011;54603;45.638;11.714;2024-03-06T00:14:39;5.40;;;2.10;;
67805;SDS011;54603;45.638;11.714;2024-03-06T00:17:04;2.50;;;1.70;;
67805;SDS011;54603;45.638;11.714;2024-03-06T00:19:33;4.90;;;1.70;;
67805;SDS011;54603;45.638;11.714;2024-03-06T00:22:00;2.50;;;1.90;;
67805;SDS011;54603;45.638;11.714;2024-03-06T00:24:26;2.60;;;1.70;;
67805;SDS011;54603;45.638;11.714;2024-03-06T00:26:52;3.40;;;1.90;;
67805;SDS011;54603;45.638;11.714;2024-03-06T00:29:19;5.90;;;2.00;;
67805;SDS011;54603;45.638;11.714;2024-03-06T00:31:45;3.60;;;2.10;;
67805;SDS011;54603;45.638;11.714;2024-03-06T00:34:12;5.10;;;1.80;;
67805;SDS011;54603;45.638;11.714;2024-03-06T00:36:40;3.10;;;1.80;;
67805;SDS011;54603;45.638;11.714;2024-03-06T00:39:09;2.80;;;1.80;;
67805;SDS011;54603;45.638;11.714;2024-03-06T00:41:35;4.00;;;2.00;;
67805;SDS011;54603;45.638;11.714;2024-03-06T00:44:02;2.90;;;1.80;;
67805;SDS011;54603;45.638;11.714;2024-03-06T00:46:28;4.50;;;1.60;;
67805;SDS011;54603;45.638;11.714;2024-03-06T00:48:54;3.50;;;2.00;;
67805;SDS011;54603;45.638;11.714;2024-03-06T00:51:19;4.10;;;2.10;;
67805;SDS011;54603;45.638;11.714;2024-03-06T00:53:45;3.60;;;2.10;;
67805;SDS011;54603;45.638;11.714;2024-03-06T00:56:11;4.20;;;1.80;;
67805;SDS011;54603;45.638;11.714;2024-03-06T00:58:37;2.30;;;1.70;;
67805;SDS011;54603;45.638;11.714;2024-03-06T01:01:03;2.50;;;1.70;;
67805;SDS011;54603;45.638;11.714;2024-03-06T01:03:29;3.10;;;1.70;;
67805;SDS011;54603;45.638;11.714;2024-03-06T01:05:55;3.20;;;2.00;;
67805;SDS011;54603;45.638;11.714;2024-03-06T01:08:25;3.40;;;1.80;;
67805;SDS011;54603;45.638;11.714;2024-03-06T01:10:51;3.50;;;1.80;;
67805;SDS011;54603;45.638;11.714;2024-03-06T01:13:20;4.20;;;2.10;;
67805;SDS011;54603;45.638;11.714;2024-03-06T01:15:47;4.80;;;1.70;;
67805;SDS011;54603;45.638;11.714;2024-03-06T01:18:12;3.40;;;2.00;;
67805;SDS011;54603;45.638;11.714;2024-03-06T01:20:38;3.30;;;1.90;;
67805;SDS011;54603;45.638;11.714;2024-03-06T01:23:05;3.20;;;1.70;;
67805;SDS011;54603;45.638;11.714;2024-03-06T01:25:30;2.70;;;1.70;;
67805;SDS011;54603;45.638;11.714;2024-03-06T01:27:56;2.80;;;1.70;;
67805;SDS011;54603;45.638;11.714;2024-03-06T01:30:22;4.00;;;1.80;;
67805;SDS011;54603;45.638;11.714;2024-03-06T01:32:48;2.20;;;1.70;;
67805;SDS011;54603;45.638;11.714;2024-03-06T01:35:14;2.30;;;1.70;;
67805;SDS011;54603;45.638;11.714;2024-03-06T01:37:39;2.50;;;1.70;;
67805;SDS011;54603;45.638;11.714;2024-03-06T01:40:15;2.70;;;1.80;;
67805;SDS011;54603;45.638;11.714;2024-03-06T01:42:42;4.10;;;1.70;;
67805;SDS011;54603;45.638;11.714;2024-03-06T01:45:08;3.00;;;1.40;;
67805;SDS011;54603;45.638;11.714;2024-03-06T01:47:34;2.70;;;1.60;;
67805;SDS011;54603;45.638;11.714;2024-03-06T01:50:01;2.80;;;1.50;;
67805;SDS011;54603;45.638;11.714;2024-03-06T01:52:31;2.50;;;1.60;;
67805;SDS011;54603;45.638;11.714;2024-03-06T01:55:14;3.10;;;1.50;;
67805;SDS011;54603;45.638;11.714;2024-03-06T01:57:44;2.50;;;1.50;;
67805;SDS011;54603;45.638;11.714;2024-03-06T02:00:11;2.50;;;1.70;;
67805;SDS011;54603;45.638;11.714;2024-03-06T02:02:41;2.40;;;1.50;;
67805;SDS011;54603;45.638;11.714;2024-03-06T02:05:08;1.80;;;1.30;;
67805;SDS011;54603;45.638;11.714;2024-03-06T02:07:36;2.70;;;1.60;;
67805;SDS011;54603;45.638;11.714;2024-03-06T02:10:05;3.30;;;1.70;;
67805;SDS011;54603;45.638;11.714;2024-03-06T02:12:32;2.40;;;1.70;;
67805;SDS011;54603;45.638;11.714;2024-03-06T02:15:00;3.80;;;1.70;;
67805;SDS011;54603;45.638;11.714;2024-03-06T02:17:25;2.60;;;1.60;;
67805;SDS011;54603;45.638;11.714;2024-03-06T02:19:51;2.40;;;1.60;;
67805;SDS011;54603;45.638;11.714;2024-03-06T02:22:17;2.70;;;1.70;;
67805;SDS011;54603;45.638;11.714;2024-03-06T02:24:47;5.00;;;1.50;;
67805;SDS011;54603;45.638;11.714;2024-03-06T02:27:14;1.90;;;1.40;;
67805;SDS011;54603;45.638;11.714;2024-03-06T02:29:42;2.70;;;1.80;;
67805;SDS011;54603;45.638;11.714;2024-03-06T02:32:09;3.60;;;1.50;;
67805;SDS011;54603;45.638;11.714;2024-03-06T02:34:34;2.20;;;1.40;;
67805;SDS011;54603;45.638;11.714;2024-03-06T02:37:00;2.30;;;1.50;;
67805;SDS011;54603;45.638;11.714;2024-03-06T02:39:26;3.60;;;1.40;;
67805;SDS011;54603;45.638;11.714;2024-03-06T02:41:52;3.20;;;1.80;;
67805;SDS011;54603;45.638;11.714;2024-03-06T02:44:18;3.50;;;1.50;;
67805;SDS011;54603;45.638;11.714;2024-03-06T02:46:50;2.50;;;1.70;;
67805;SDS011;54603;45.638;11.714;2024-03-06T02:49:16;1.60;;;1.50;;
67805;SDS011;54603;45.638;11.714;2024-03-06T02:51:42;2.10;;;1.50;;
67805;SDS011;54603;45.638;11.714;2024-03-06T02:54:08;2.80;;;1.60;;
67805;SDS011;54603;45.638;11.714;2024-03-06T02:56:34;3.20;;;1.60;;
67805;SDS011;54603;45.638;11.714;2024-03-06T02:59:00;1.90;;;1.40;;
67805;SDS011;54603;45.638;11.714;2024-03-06T03:01:28;1.90;;;1.50;;
67805;SDS011;54603;45.638;11.714;2024-03-06T03:03:55;2.00;;;1.40;;
67805;SDS011;54603;45.638;11.714;2024-03-06T03:06:21;2.00;;;1.40;;
67805;SDS011;54603;45.638;11.714;2024-03-06T03:08:49;1.50;;;1.20;;
67805;SDS011;54603;45.638;11.714;2024-03-06T03:11:15;3.00;;;1.80;;
67805;SDS011;54603;45.638;11.714;2024-03-06T03:13:41;2.00;;;1.40;;
67805;SDS011;54603;45.638;11.714;2024-03-06T03:16:15;1.50;;;1.30;;
67805;SDS011;54603;45.638;11.714;2024-03-06T03:18:43;3.10;;;1.60;;
67805;SDS011;54603;45.638;11.714;2024-03-06T03:21:09;1.50;;;1.40;;
67805;SDS011;54603;45.638;11.714;2024-03-06T03:23:37;2.30;;;1.50;;
67805;SDS011;54603;45.638;11.714;2024-03-06T03:26:05;1.90;;;1.40;;
67805;SDS011;54603;45.638;11.714;2024-03-06T03:28:32;2.40;;;1.50;;
67805;SDS011;54603;45.638;11.714;2024-03-06T03:30:58;1.70;;;1.40;;
67805;SDS011;54603;45.638;11.714;2024-03-06T03:33:24;3.20;;;1.60;;
67805;SDS011;54603;45.638;11.714;2024-03-06T03:35:50;4.00;;;1.30;;
67805;SDS011;54603;45.638;11.714;2024-03-06T03:38:16;2.70;;;1.50;;
67805;SDS011;54603;45.638;11.714;2024-03-06T03:40:42;2.30;;;1.20;;
67805;SDS011;54603;45.638;11.714;2024-03-06T03:43:08;1.80;;;1.60;;
67805;SDS011;54603;45.638;11.714;2024-03-06T03:45:34;2.60;;;1.70;;
67805;SDS011;54603;45.638;11.714;2024-03-06T03:48:01;3.50;;;1.50;;
67805;SDS011;54603;45.638;11.714;2024-03-06T03:50:28;2.60;;;1.50;;
67805;SDS011;54603;45.638;11.714;2024-03-06T03:52:55;1.80;;;1.20;;
67805;SDS011;54603;45.638;11.714;2024-03-06T03:55:24;3.50;;;1.30;;
67805;SDS011;54603;45.638;11.714;2024-03-06T03:57:53;2.60;;;1.30;;
67805;SDS011;54603;45.638;11.714;2024-03-06T04:00:19;2.10;;;1.30;;
67805;SDS011;54603;45.638;11.714;2024-03-06T04:02:45;2.60;;;1.40;;
67805;SDS011;54603;45.638;11.714;2024-03-06T04:05:11;1.60;;;1.40;;
67805;SDS011;54603;45.638;11.714;2024-03-06T04:07:37;1.90;;;1.40;;
67805;SDS011;54603;45.638;11.714;2024-03-06T04:10:04;1.80;;;1.30;;
67805;SDS011;54603;45.638;11.714;2024-03-06T04:12:29;1.90;;;1.30;;
67805;SDS011;54603;45.638;11.714;2024-03-06T04:14:56;1.70;;;1.40;;
67805;SDS011;54603;45.638;11.714;2024-03-06T04:17:22;2.10;;;1.40;;
67805;SDS011;54603;45.638;11.714;2024-03-06T04:19:48;2.20;;;1.40;;
67805;SDS011;54603;45.638;11.714;2024-03-06T04:22:14;1.70;;;1.30;;
67805;SDS011;54603;45.638;11.714;2024-03-06T04:24:43;1.50;;;1.30;;
67805;SDS011;54603;45.638;11.714;2024-03-06T04:27:10;3.50;;;1.50;;
67805;SDS011;54603;45.638;11.714;2024-03-06T04:29:36;1.80;;;1.50;;
67805;SDS011;54603;45.638;11.714;2024-03-06T04:32:01;3.70;;;1.40;;
67805;SDS011;54603;45.638;11.714;2024-03-06T04:34:27;1.60;;;1.20;;
67805;SDS011;54603;45.638;11.714;2024-03-06T04:36:53;1.40;;;1.30;;
67805;SDS011;54603;45.638;11.714;2024-03-06T04:39:22;1.60;;;1.20;;
67805;SDS011;54603;45.638;11.714;2024-03-06T04:41:47;1.60;;;1.30;;
67805;SDS011;54603;45.638;11.714;2024-03-06T04:44:13;1.30;;;1.10;;
67805;SDS011;54603;45.638;11.714;2024-03-06T04:46:39;1.90;;;1.40;;
67805;SDS011;54603;45.638;11.714;2024-03-06T04:49:05;2.40;;;1.30;;
67805;SDS011;54603;45.638;11.714;2024-03-06T04:51:30;2.00;;;1.30;;
67805;SDS011;54603;45.638;11.714;2024-03-06T04:53:56;1.40;;;1.30;;
67805;SDS011;54603;45.638;11.714;2024-03-06T04:56:22;1.60;;;1.30;;
67805;SDS011;54603;45.638;11.714;2024-03-06T04:58:48;1.90;;;1.30;;
67805;SDS011;54603;45.638;11.714;2024-03-06T05:01:13;1.80;;;1.50;;
67805;SDS011;54603;45.638;11.714;2024-03-06T05:03:39;1.80;;;1.40;;
67805;SDS011;54603;45.638;11.714;2024-03-06T05:06:05;1.90;;;1.50;;
67805;SDS011;54603;45.638;11.714;2024-03-06T05:08:31;1.50;;;1.10;;
67805;SDS011;54603;45.638;11.714;2024-03-06T05:11:00;1.80;;;1.30;;
67805;SDS011;54603;45.638;11.714;2024-03-06T05:13:27;3.70;;;1.70;;
67805;SDS011;54603;45.638;11.714;2024-03-06T05:15:53;2.60;;;1.60;;
67805;SDS011;54603;45.638;11.714;2024-03-06T05:18:20;3.30;;;1.60;;
67805;SDS011;54603;45.638;11.714;2024-03-06T05:20:46;2.20;;;1.40;;
67805;SDS011;54603;45.638;11.714;2024-03-06T05:23:12;4.60;;;2.00;;
67805;SDS011;54603;45.638;11.714;2024-03-06T05:25:39;2.70;;;1.50;;
67805;SDS011;54603;45.638;11.714;2024-03-06T05:28:06;2.90;;;1.70;;
67805;SDS011;54603;45.638;11.714;2024-03-06T05:30:31;2.50;;;1.60;;
67805;SDS011;54603;45.638;11.714;2024-03-06T05:32:57;2.10;;;1.60;;
67805;SDS011;54603;45.638;11.714;2024-03-06T05:35:23;2.20;;;1.70;;
67805;SDS011;54603;45.638;11.714;2024-03-06T05:37:49;1.40;;;1.30;;
67805;SDS011;54603;45.638;11.714;2024-03-06T05:40:14;3.00;;;1.70;;
67805;SDS011;54603;45.638;11.714;2024-03-06T05:42:40;1.80;;;1.60;;
67805;SDS011;54603;45.638;11.714;2024-03-06T05:45:07;2.90;;;1.80;;
67805;SDS011;54603;45.638;11.714;2024-03-06T05:47:37;2.90;;;1.40;;
67805;SDS011;54603;45.638;11.714;2024-03-06T05:50:05;2.50;;;1.70;;
67805;SDS011;54603;45.638;11.714;2024-03-06T05:52:31;3.80;;;1.70;;
67805;SDS011;54603;45.638;11.714;2024-03-06T05:54:57;2.80;;;1.80;;
67805;SDS011;54603;45.638;11.714;2024-03-06T05:57:23;5.50;;;2.00;;
67805;SDS011;54603;45.638;11.714;2024-03-06T05:59:50;3.20;;;1.80;;
67805;SDS011;54603;45.638;11.714;2024-03-06T06:02:15;3.00;;;2.10;;
67805;SDS011;54603;45.638;11.714;2024-03-06T06:04:47;4.20;;;2.00;;
67805;SDS011;54603;45.638;11.714;2024-03-06T06:07:13;2.30;;;1.50;;
67805;SDS011;54603;45.638;11.714;2024-03-06T06:09:39;5.10;;;2.30;;
67805;SDS011;54603;45.638;11.714;2024-03-06T06:12:05;2.40;;;1.80;;
67805;SDS011;54603;45.638;11.714;2024-03-06T06:14:31;3.30;;;1.90;;
67805;SDS011;54603;45.638;11.714;2024-03-06T06:16:57;6.80;;;2.50;;
67805;SDS011;54603;45.638;11.714;2024-03-06T06:19:26;1.90;;;1.50;;
67805;SDS011;54603;45.638;11.714;2024-03-06T06:22:05;4.60;;;2.50;;
67805;SDS011;54603;45.638;11.714;2024-03-06T06:24:33;3.20;;;1.80;;
67805;SDS011;54603;45.638;11.714;2024-03-06T06:26:59;5.00;;;2.30;;
67805;SDS011;54603;45.638;11.714;2024-03-06T06:29:24;3.90;;;2.20;;
67805;SDS011;54603;45.638;11.714;2024-03-06T06:31:55;4.30;;;2.20;;
67805;SDS011;54603;45.638;11.714;2024-03-06T06:34:27;3.20;;;1.80;;
67805;SDS011;54603;45.638;11.714;2024-03-06T06:36:59;8.80;;;3.60;;
67805;SDS011;54603;45.638;11.714;2024-03-06T06:39:28;3.10;;;1.90;;
67805;SDS011;54603;45.638;11.714;2024-03-06T06:41:54;3.00;;;2.10;;
67805;SDS011;54603;45.638;11.714;2024-03-06T06:44:20;3.60;;;1.80;;
67805;SDS011;54603;45.638;11.714;2024-03-06T06:46:46;1.80;;;1.50;;
67805;SDS011;54603;45.638;11.714;2024-03-06T06:49:11;6.70;;;2.60;;
67805;SDS011;54603;45.638;11.714;2024-03-06T06:51:37;4.10;;;2.00;;
67805;SDS011;54603;45.638;11.714;2024-03-06T06:54:03;5.90;;;2.80;;
67805;SDS011;54603;45.638;11.714;2024-03-06T06:56:29;4.40;;;2.30;;
67805;SDS011;54603;45.638;11.714;2024-03-06T06:58:56;5.10;;;2.80;;
67805;SDS011;54603;45.638;11.714;2024-03-06T07:01:22;3.90;;;2.60;;
67805;SDS011;54603;45.638;11.714;2024-03-06T07:03:47;4.70;;;2.30;;
67805;SDS011;54603;45.638;11.714;2024-03-06T07:06:13;4.90;;;2.40;;
67805;SDS011;54603;45.638;11.714;2024-03-06T07:08:39;3.30;;;2.40;;
67805;SDS011;54603;45.638;11.714;2024-03-06T07:11:05;3.70;;;1.90;;
67805;SDS011;54603;45.638;11.714;2024-03-06T07:13:30;2.30;;;1.80;;
67805;SDS011;54603;45.638;11.714;2024-03-06T07:15:56;8.20;;;2.30;;
67805;SDS011;54603;45.638;11.714;2024-03-06T07:18:23;4.00;;;1.90;;
67805;SDS011;54603;45.638;11.714;2024-03-06T07:20:52;2.80;;;2.30;;
67805;SDS011;54603;45.638;11.714;2024-03-06T07:23:27;6.20;;;2.40;;
67805;SDS011;54603;45.638;11.714;2024-03-06T07:25:58;4.00;;;2.90;;
67805;SDS011;54603;45.638;11.714;2024-03-06T07:28:25;5.40;;;3.20;;
67805;SDS011;54603;45.638;11.714;2024-03-06T07:30:52;3.50;;;2.30;;
67805;SDS011;54603;45.638;11.714;2024-03-06T07:33:18;4.10;;;2.60;;
67805;SDS011;54603;45.638;11.714;2024-03-06T07:35:43;4.10;;;2.30;;
67805;SDS011;54603;45.638;11.714;2024-03-06T07:38:09;3.00;;;1.80;;
67805;SDS011;54603;45.638;11.714;2024-03-06T07:40:35;4.70;;;2.10;;
67805;SDS011;54603;45.638;11.714;2024-03-06T07:43:00;5.80;;;2.00;;
67805;SDS011;54603;45.638;11.714;2024-03-06T07:45:26;2.30;;;2.00;;
67805;SDS011;54603;45.638;11.714;2024-03-06T07:47:52;9.60;;;2.70;;
67805;SDS011;54603;45.638;11.714;2024-03-06T07:50:18;3.50;;;2.30;;
67805;SDS011;54603;45.638;11.714;2024-03-06T07:52:45;3.80;;;1.90;;
67805;SDS011;54603;45.638;11.714;2024-03-06T07:55:11;5.10;;;2.20;;
67805;SDS011;54603;45.638;11.714;2024-03-06T07:57:37;2.80;;;1.80;;
67805;SDS011;54603;45.638;11.714;2024-03-06T08:00:05;2.60;;;2.00;;
67805;SDS011;54603;45.638;11.714;2024-03-06T08:02:43;3.20;;;1.90;;
67805;SDS011;54603;45.638;11.714;2024-03-06T08:05:10;5.10;;;2.50;;
67805;SDS011;54603;45.638;11.714;2024-03-06T08:07:38;6.10;;;2.60;;
67805;SDS011;54603;45.638;11.714;2024-03-06T08:10:11;4.90;;;2.40;;
67805;SDS011;54603;45.638;11.714;2024-03-06T08:12:43;3.80;;;2.10;;
67805;SDS011;54603;45.638;11.714;2024-03-06T08:15:13;4.40;;;2.40;;
67805;SDS011;54603;45.638;11.714;2024-03-06T08:17:41;3.90;;;1.60;;
67805;SDS011;54603;45.638;11.714;2024-03-06T08:20:09;2.00;;;1.50;;
67805;SDS011;54603;45.638;11.714;2024-03-06T08:22:37;4.20;;;2.10;;
67805;SDS011;54603;45.638;11.714;2024-03-06T08:25:09;4.30;;;2.10;;
67805;SDS011;54603;45.638;11.714;2024-03-06T08:27:42;3.80;;;2.20;;
67805;SDS011;54603;45.638;11.714;2024-03-06T08:30:13;4.30;;;2.10;;
67805;SDS011;54603;45.638;11.714;2024-03-06T08:32:39;2.50;;;2.00;;
67805;SDS011;54603;45.638;11.714;2024-03-06T08:35:06;4.30;;;2.20;;
67805;SDS011;54603;45.638;11.714;2024-03-06T08:37:40;5.60;;;2.00;;
67805;SDS011;54603;45.638;11.714;2024-03-06T08:40:07;3.50;;;2.30;;
67805;SDS011;54603;45.638;11.714;2024-03-06T08:42:36;4.00;;;2.00;;
67805;SDS011;54603;45.638;11.714;2024-03-06T08:45:02;4.30;;;2.40;;
67805;SDS011;54603;45.638;11.714;2024-03-06T08:47:31;3.40;;;1.90;;
67805;SDS011;54603;45.638;11.714;2024-03-06T08:50:00;2.90;;;2.00;;
67805;SDS011;54603;45.638;11.714;2024-03-06T08:52:33;5.50;;;2.60;;
67805;SDS011;54603;45.638;11.714;2024-03-06T08:55:02;3.30;;;1.90;;
67805;SDS011;54603;45.638;11.714;2024-03-06T08:57:32;2.90;;;1.80;;
67805;SDS011;54603;45.638;11.714;2024-03-06T08:59:58;2.40;;;1.90;;
67805;SDS011;54603;45.638;11.714;2024-03-06T09:02:24;8.50;;;2.10;;
67805;SDS011;54603;45.638;11.714;2024-03-06T09:04:51;4.80;;;2.20;;
67805;SDS011;54603;45.638;11.714;2024-03-06T09:07:18;3.80;;;2.10;;
67805;SDS011;54603;45.638;11.714;2024-03-06T09:09:46;3.00;;;1.90;;
67805;SDS011;54603;45.638;11.714;2024-03-06T09:12:11;3.50;;;1.80;;
67805;SDS011;54603;45.638;11.714;2024-03-06T09:14:38;5.50;;;2.40;;
67805;SDS011;54603;45.638;11.714;2024-03-06T09:17:05;3.60;;;2.00;;
67805;SDS011;54603;45.638;11.714;2024-03-06T09:19:35;3.20;;;1.90;;
67805;SDS011;54603;45.638;11.714;2024-03-06T09:22:01;2.70;;;1.70;;
67805;SDS011;54603;45.638;11.714;2024-03-06T09:24:28;2.60;;;2.10;;
67805;SDS011;54603;45.638;11.714;2024-03-06T09:26:54;4.70;;;2.20;;
67805;SDS011;54603;45.638;11.714;2024-03-06T09:29:20;4.60;;;2.10;;
67805;SDS011;54603;45.638;11.714;2024-03-06T09:31:47;3.80;;;2.00;;
67805;SDS011;54603;45.638;11.714;2024-03-06T09:34:14;2.80;;;1.90;;
67805;SDS011;54603;45.638;11.714;2024-03-06T09:36:47;3.00;;;2.00;;
67805;SDS011;54603;45.638;11.714;2024-03-06T09:39:15;3.30;;;2.40;;
67805;SDS011;54603;45.638;11.714;2024-03-06T09:41:51;3.40;;;2.10;;
67805;SDS011;54603;45.638;11.714;2024-03-06T09:44:18;2.60;;;2.10;;
67805;SDS011;54603;45.638;11.714;2024-03-06T09:46:46;4.10;;;1.90;;
67805;SDS011;54603;45.638;11.714;2024-03-06T09:49:18;3.40;;;2.00;;
67805;SDS011;54603;45.638;11.714;2024-03-06T09:51:48;3.10;;;1.60;;
67805;SDS011;54603;45.638;11.714;2024-03-06T09:54:16;3.70;;;2.30;;
67805;SDS011;54603;45.638;11.714;2024-03-06T09:56:43;4.40;;;2.00;;
67805;SDS011;54603;45.638;11.714;2024-03-06T09:59:11;3.30;;;1.90;;
67805;SDS011;54603;45.638;11.714;2024-03-06T10:01:50;3.50;;;2.00;;
67805;SDS011;54603;45.638;11.714;2024-03-06T10:04:32;7.90;;;2.40;;
67805;SDS011;54603;45.638;11.714;2024-03-06T10:06:59;6.30;;;2.60;;
67805;SDS011;54603;45.638;11.714;2024-03-06T10:09:27;3.20;;;2.00;;
67805;SDS011;54603;45.638;11.714;2024-03-06T10:11:54;4.80;;;2.60;;
67805;SDS011;54603;45.638;11.714;2024-03-06T10:14:22;5.40;;;2.70;;
67805;SDS011;54603;45.638;11.714;2024-03-06T10:16:55;5.20;;;2.10;;
67805;SDS011;54603;45.638;11.714;2024-03-06T10:19:24;4.70;;;2.30;;
67805;SDS011;54603;45.638;11.714;2024-03-06T10:21:58;3.40;;;2.50;;
67805;SDS011;54603;45.638;11.714;2024-03-06T10:24:28;4.40;;;2.40;;
67805;SDS011;54603;45.638;11.714;2024-03-06T10:26:57;6.30;;;3.00;;
67805;SDS011;54603;45.638;11.714;2024-03-06T10:29:25;5.20;;;2.50;;
67805;SDS011;54603;45.638;11.714;2024-03-06T10:31:57;4.50;;;2.80;;
67805;SDS011;54603;45.638;11.714;2024-03-06T10:34:26;6.10;;;3.00;;
67805;SDS011;54603;45.638;11.714;2024-03-06T10:36:59;4.00;;;2.70;;
67805;SDS011;54603;45.638;11.714;2024-03-06T10:39:33;4.50;;;3.00;;
67805;SDS011;54603;45.638;11.714;2024-03-06T10:42:10;5.30;;;2.70;;
67805;SDS011;54603;45.638;11.714;2024-03-06T10:44:51;4.10;;;2.60;;
67805;SDS011;54603;45.638;11.714;2024-03-06T10:47:19;5.70;;;2.80;;
67805;SDS011;54603;45.638;11.714;2024-03-06T10:49:45;4.60;;;2.90;;
67805;SDS011;54603;45.638;11.714;2024-03-06T10:52:14;3.90;;;2.50;;
67805;SDS011;54603;45.638;11.714;2024-03-06T10:54:43;5.70;;;2.80;;
67805;SDS011;54603;45.638;11.714;2024-03-06T10:57:11;3.80;;;2.60;;
67805;SDS011;54603;45.638;11.714;2024-03-06T10:59:38;3.60;;;2.60;;
67805;SDS011;54603;45.638;11.714;2024-03-06T11:02:06;3.00;;;2.30;;
67805;SDS011;54603;45.638;11.714;2024-03-06T11:04:34;4.80;;;2.30;;
67805;SDS011;54603;45.638;11.714;2024-03-06T11:07:01;4.60;;;2.30;;
67805;SDS011;54603;45.638;11.714;2024-03-06T11:09:28;3.10;;;2.60;;
67805;SDS011;54603;45.638;11.714;2024-03-06T11:12:00;4.80;;;2.50;;
67805;SDS011;54603;45.638;11.714;2024-03-06T11:14:30;3.90;;;2.30;;
67805;SDS011;54603;45.638;11.714;2024-03-06T11:17:10;4.50;;;2.40;;
67805;SDS011;54603;45.638;11.714;2024-03-06T11:28:24;2.50;;;1.50;;
67805;SDS011;54603;45.638;11.714;2024-03-06T11:31:03;3.00;;;2.20;;
67805;SDS011;54603;45.638;11.714;2024-03-06T11:33:42;3.00;;;1.70;;
67805;SDS011;54603;45.638;11.714;2024-03-06T11:36:24;6.50;;;2.30;;
67805;SDS011;54603;45.638;11.714;2024-03-06T11:39:05;4.70;;;2.60;;
67805;SDS011;54603;45.638;11.714;2024-03-06T11:44:13;2.90;;;1.80;;
67805;SDS011;54603;45.638;11.714;2024-03-06T11:47:03;3.30;;;1.80;;
67805;SDS011;54603;45.638;11.714;2024-03-06T11:49:33;5.20;;;1.90;;
67805;SDS011;54603;45.638;11.714;2024-03-06T11:52:07;2.70;;;1.70;;
67805;SDS011;54603;45.638;11.714;2024-03-06T11:54:34;5.80;;;1.50;;
67805;SDS011;54603;45.638;11.714;2024-03-06T11:57:01;2.80;;;1.70;;
67805;SDS011;54603;45.638;11.714;2024-03-06T11:59:35;1.90;;;1.60;;
67805;SDS011;54603;45.638;11.714;2024-03-06T12:02:04;5.20;;;2.00;;
67805;SDS011;54603;45.638;11.714;2024-03-06T12:04:31;1.90;;;1.40;;
67805;SDS011;54603;45.638;11.714;2024-03-06T12:07:03;5.30;;;1.80;;
67805;SDS011;54603;45.638;11.714;2024-03-06T12:09:34;3.10;;;1.80;;
67805;SDS011;54603;45.638;11.714;2024-03-06T12:12:00;2.60;;;1.80;;
67805;SDS011;54603;45.638;11.714;2024-03-06T12:14:25;2.70;;;2.10;;
67805;SDS011;54603;45.638;11.714;2024-03-06T12:16:58;3.30;;;1.90;;
67805;SDS011;54603;45.638;11.714;2024-03-06T12:19:28;2.70;;;1.70;;
67805;SDS011;54603;45.638;11.714;2024-03-06T12:22:05;4.30;;;1.90;;
67805;SDS011;54603;45.638;11.714;2024-03-06T12:24:32;2.70;;;2.00;;
67805;SDS011;54603;45.638;11.714;2024-03-06T12:27:00;2.20;;;2.00;;
67805;SDS011;54603;45.638;11.714;2024-03-06T12:29:29;2.60;;;2.10;;
67805;SDS011;54603;45.638;11.714;2024-03-06T12:31:58;3.50;;;2.10;;
67805;SDS011;54603;45.638;11.714;2024-03-06T12:34:24;3.80;;;2.60;;
67805;SDS011;54603;45.638;11.714;2024-03-06T12:36:50;4.10;;;2.40;;
67805;SDS011;54603;45.638;11.714;2024-03-06T12:39:17;4.40;;;2.30;;
67805;SDS011;54603;45.638;11.714;2024-03-06T12:41:51;3.20;;;2.00;;
67805;SDS011;54603;45.638;11.714;2024-03-06T12:44:18;3.90;;;2.50;;
67805;SDS011;54603;45.638;11.714;2024-03-06T12:46:44;7.10;;;2.50;;
67805;SDS011;54603;45.638;11.714;2024-03-06T12:49:10;3.00;;;2.20;;
67805;SDS011;54603;45.638;11.714;2024-03-06T12:51:36;3.50;;;2.50;;
67805;SDS011;54603;45.638;11.714;2024-03-06T12:54:02;4.40;;;2.30;;
67805;SDS011;54603;45.638;11.714;2024-03-06T12:56:29;5.50;;;2.40;;
67805;SDS011;54603;45.638;11.714;2024-03-06T12:58:54;4.80;;;2.50;;
67805;SDS011;54603;45.638;11.714;2024-03-06T13:01:20;5.10;;;2.60;;
67805;SDS011;54603;45.638;11.714;2024-03-06T13:03:46;6.20;;;2.50;;
67805;SDS011;54603;45.638;11.714;2024-03-06T13:06:12;3.00;;;2.00;;
67805;SDS011;54603;45.638;11.714;2024-03-06T13:08:38;3.20;;;2.30;;
67805;SDS011;54603;45.638;11.714;2024-03-06T13:11:04;3.30;;;2.20;;
67805;SDS011;54603;45.638;11.714;2024-03-06T13:13:29;6.60;;;3.10;;
67805;SDS011;54603;45.638;11.714;2024-03-06T13:15:58;4.10;;;2.80;;
67805;SDS011;54603;45.638;11.714;2024-03-06T13:18:24;5.00;;;2.80;;
67805;SDS011;54603;45.638;11.714;2024-03-06T13:20:51;3.50;;;2.20;;
67805;SDS011;54603;45.638;11.714;2024-03-06T13:23:17;3.50;;;2.20;;
67805;SDS011;54603;45.638;11.714;2024-03-06T13:25:43;4.10;;;2.50;;
67805;SDS011;54603;45.638;11.714;2024-03-06T13:28:10;3.80;;;2.60;;
67805;SDS011;54603;45.638;11.714;2024-03-06T13:30:37;4.40;;;2.50;;
67805;SDS011;54603;45.638;11.714;2024-03-06T13:33:05;4.80;;;2.60;;
67805;SDS011;54603;45.638;11.714;2024-03-06T13:35:31;3.90;;;2.70;;
67805;SDS011;54603;45.638;11.714;2024-03-06T13:37:56;3.60;;;2.00;;
67805;SDS011;54603;45.638;11.714;2024-03-06T13:40:22;3.90;;;2.10;;
67805;SDS011;54603;45.638;11.714;2024-03-06T13:42:48;3.30;;;2.10;;
67805;SDS011;54603;45.638;11.714;2024-03-06T13:45:14;5.70;;;2.50;;
67805;SDS011;54603;45.638;11.714;2024-03-06T13:47:41;5.20;;;2.70;;
67805;SDS011;54603;45.638;11.714;2024-03-06T13:50:13;3.80;;;2.40;;
67805;SDS011;54603;45.638;11.714;2024-03-06T13:52:40;6.60;;;2.50;;
67805;SDS011;54603;45.638;11.714;2024-03-06T13:55:07;4.40;;;2.40;;
67805;SDS011;54603;45.638;11.714;2024-03-06T13:57:34;4.40;;;2.50;;
67805;SDS011;54603;45.638;11.714;2024-03-06T14:00:05;4.50;;;2.30;;
67805;SDS011;54603;45.638;11.714;2024-03-06T14:02:43;3.60;;;2.60;;
67805;SDS011;54603;45.638;11.714;2024-03-06T14:05:19;3.80;;;2.40;;
67805;SDS011;54603;45.638;11.714;2024-03-06T14:07:52;3.20;;;1.90;;
67805;SDS011;54603;45.638;11.714;2024-03-06T14:10:18;3.60;;;2.30;;
67805;SDS011;54603;45.638;11.714;2024-03-06T14:12:45;2.90;;;2.20;;
67805;SDS011;54603;45.638;11.714;2024-03-06T14:15:11;4.70;;;2.50;;
67805;SDS011;54603;45.638;11.714;2024-03-06T14:17:38;4.30;;;2.30;;
67805;SDS011;54603;45.638;11.714;2024-03-06T14:20:04;3.30;;;2.30;;
67805;SDS011;54603;45.638;11.714;2024-03-06T14:22:31;3.60;;;1.70;;
67805;SDS011;54603;45.638;11.714;2024-03-06T14:24:57;3.70;;;2.40;;
67805;SDS011;54603;45.638;11.714;2024-03-06T14:27:23;6.50;;;2.60;;
67805;SDS011;54603;45.638;11.714;2024-03-06T14:29:48;5.70;;;2.80;;
67805;SDS011;54603;45.638;11.714;2024-03-06T14:32:18;4.80;;;2.40;;
67805;SDS011;54603;45.638;11.714;2024-03-06T14:34:44;4.50;;;2.60;;
67805;SDS011;54603;45.638;11.714;2024-03-06T14:37:10;4.40;;;2.40;;
67805;SDS011;54603;45.638;11.714;2024-03-06T14:39:36;4.60;;;2.70;;
67805;SDS011;54603;45.638;11.714;2024-03-06T14:42:02;6.90;;;2.90;;
67805;SDS011;54603;45.638;11.714;2024-03-06T14:44:29;6.20;;;2.60;;
67805;SDS011;54603;45.638;11.714;2024-03-06T14:46:56;7.10;;;2.50;;